createdAt,value
2022-11-12T00:00:41.882Z,3.50
2022-11-12T00:03:09.252Z,3.50
2022-11-12T00:05:36.466Z,3.50
2022-11-12T00:08:03.891Z,3.60
2022-11-12T00:10:31.907Z,3.60
2022-11-12T00:12:59.325Z,3.60
2022-11-12T00:15:26.763Z,3.50
2022-11-12T00:17:53.801Z,3.50
2022-11-12T00:20:20.663Z,3.50
2022-11-12T00:22:47.353Z,3.50
2022-11-12T00:25:13.975Z,3.50
2022-11-12T00:27:40.786Z,3.50
2022-11-12T00:30:07.654Z,3.50
2022-11-12T00:32:37.636Z,3.50
2022-11-12T00:35:06.017Z,3.50
2022-11-12T00:37:33.586Z,3.50
2022-11-12T00:40:00.162Z,3.50
2022-11-12T00:42:26.787Z,3.50
2022-11-12T00:44:53.369Z,3.50
2022-11-12T00:47:20.307Z,3.50
2022-11-12T00:49:46.925Z,3.40
2022-11-12T00:52:13.588Z,3.40
2022-11-12T00:54:40.484Z,3.40
2022-11-12T00:57:08.292Z,3.30
2022-11-12T00:59:34.893Z,3.30
2022-11-12T01:02:01.536Z,3.30
2022-11-12T01:04:28.207Z,3.20
2022-11-12T01:06:54.911Z,3.20
2022-11-12T01:09:21.647Z,3.20
2022-11-12T01:11:48.974Z,3.20
2022-11-12T01:14:15.754Z,3.20
2022-11-12T01:16:43.039Z,3.20
2022-11-12T01:19:10.887Z,3.20
2022-11-12T01:21:39.442Z,3.20
2022-11-12T01:24:06.531Z,3.20
2022-11-12T01:26:33.177Z,3.20
2022-11-12T01:28:59.890Z,3.20
2022-11-12T01:31:27.638Z,3.10
2022-11-12T01:33:55.296Z,3.00
2022-11-12T01:36:22.084Z,3.00
2022-11-12T01:38:49.264Z,2.90
2022-11-12T01:41:17.707Z,2.90
2022-11-12T01:43:44.424Z,2.80
2022-11-12T01:46:18.697Z,2.90
2022-11-12T01:48:50.859Z,2.80
2022-11-12T01:51:19.418Z,2.80
2022-11-12T01:53:47.703Z,2.80
2022-11-12T01:56:15.024Z,2.80
2022-11-12T01:58:42.369Z,2.80
2022-11-12T02:01:09.190Z,2.80
2022-11-12T02:03:35.863Z,2.70
2022-11-12T02:06:05.962Z,2.60
2022-11-12T02:08:32.984Z,2.60
2022-11-12T02:11:10.372Z,2.70
2022-11-12T02:13:55.769Z,2.80
2022-11-12T02:16:22.538Z,2.80
2022-11-12T02:18:49.165Z,2.70
2022-11-12T02:21:18.722Z,2.80
2022-11-12T02:23:45.482Z,2.90
2022-11-12T02:26:12.124Z,2.80
2022-11-12T02:28:38.947Z,2.60
2022-11-12T02:31:05.752Z,2.60
2022-11-12T02:33:32.426Z,2.60
2022-11-12T02:35:59.053Z,2.60
2022-11-12T02:38:26.144Z,2.60
2022-11-12T02:40:53.329Z,2.50
2022-11-12T02:43:19.992Z,2.50
2022-11-12T02:45:46.728Z,2.50
2022-11-12T02:48:18.894Z,2.60
2022-11-12T02:50:47.125Z,2.60
2022-11-12T02:53:13.963Z,2.70
2022-11-12T02:55:40.831Z,2.70
2022-11-12T02:58:07.554Z,2.60
2022-11-12T03:00:34.241Z,2.60
2022-11-12T03:03:01.367Z,2.60
2022-11-12T03:05:29.681Z,2.70
2022-11-12T03:07:57.408Z,2.70
2022-11-12T03:10:24.297Z,2.70
2022-11-12T03:12:50.983Z,2.70
2022-11-12T03:15:17.837Z,2.60
2022-11-12T03:17:44.541Z,2.50
2022-11-12T03:20:11.950Z,2.50
2022-11-12T03:22:38.920Z,2.40
2022-11-12T03:25:06.582Z,2.30
2022-11-12T03:27:33.335Z,2.30
2022-11-12T03:29:59.953Z,2.20
2022-11-12T03:32:26.582Z,2.30
2022-11-12T03:34:55.624Z,2.40
2022-11-12T03:37:22.631Z,2.40
2022-11-12T03:39:49.245Z,2.40
2022-11-12T03:42:16.077Z,2.30
2022-11-12T03:44:42.758Z,2.20
2022-11-12T03:47:09.446Z,2.20
2022-11-12T03:49:36.113Z,2.10
2022-11-12T03:52:02.752Z,2.10
2022-11-12T03:54:29.441Z,2.20
2022-11-12T03:56:56.107Z,2.20
2022-11-12T03:59:22.707Z,2.30
2022-11-12T04:01:49.344Z,2.30
2022-11-12T04:04:15.992Z,2.30
2022-11-12T04:07:15.231Z,2.20
2022-11-12T04:09:41.847Z,2.20
2022-11-12T04:12:27.189Z,2.00
2022-11-12T04:14:53.844Z,2.00
2022-11-12T04:17:39.268Z,2.00
2022-11-12T04:20:25.162Z,2.10
2022-11-12T04:22:52.050Z,2.10
2022-11-12T04:25:37.361Z,2.10
2022-11-12T04:28:04.235Z,2.10
2022-11-12T04:30:30.831Z,2.10
2022-11-12T04:32:58.472Z,2.10
2022-11-12T04:35:26.076Z,2.10
2022-11-12T04:37:52.888Z,2.00
2022-11-12T04:40:45.791Z,2.00
2022-11-12T04:43:32.500Z,2.00
2022-11-12T04:45:59.904Z,2.10
2022-11-12T04:48:26.830Z,2.10
2022-11-12T04:50:55.695Z,2.10
2022-11-12T04:53:22.942Z,2.00
2022-11-12T04:55:50.974Z,2.10
2022-11-12T04:58:18.005Z,2.10
2022-11-12T05:00:44.651Z,2.20
2022-11-12T05:03:11.393Z,2.10
2022-11-12T05:05:38.398Z,2.20
2022-11-12T05:08:05.015Z,2.20
2022-11-12T05:10:31.705Z,2.10
2022-11-12T05:12:58.403Z,2.00
2022-11-12T05:15:25.403Z,2.00
2022-11-12T05:17:52.460Z,2.10
2022-11-12T05:20:19.194Z,2.10
2022-11-12T05:23:04.565Z,2.10
2022-11-12T05:25:32.655Z,2.10
2022-11-12T05:27:59.397Z,2.20
2022-11-12T05:30:26.292Z,2.40
2022-11-12T05:32:52.935Z,2.50
2022-11-12T05:35:19.598Z,2.60
2022-11-12T05:37:46.389Z,2.60
2022-11-12T05:40:13.365Z,2.50
2022-11-12T05:42:39.965Z,2.50
2022-11-12T05:45:07.097Z,2.40
2022-11-12T05:47:33.736Z,2.30
2022-11-12T05:50:00.348Z,2.30
2022-11-12T05:52:26.987Z,2.30
2022-11-12T05:54:53.623Z,2.30
2022-11-12T05:57:22.151Z,2.30
2022-11-12T05:59:48.781Z,2.30
2022-11-12T06:02:15.470Z,2.40
2022-11-12T06:04:42.116Z,2.40
2022-11-12T06:07:08.801Z,2.40
2022-11-12T06:09:35.745Z,2.40
2022-11-12T06:12:06.188Z,2.50
2022-11-12T06:14:32.848Z,2.60
2022-11-12T06:16:59.515Z,2.60
2022-11-12T06:19:26.207Z,2.60
2022-11-12T06:21:52.797Z,2.50
2022-11-12T06:24:19.733Z,2.40
2022-11-12T06:26:46.379Z,2.50
2022-11-12T06:29:13.112Z,2.60
2022-11-12T06:31:39.736Z,2.60
2022-11-12T06:34:07.096Z,2.60
2022-11-12T06:36:33.842Z,2.60
2022-11-12T06:39:00.541Z,2.60
2022-11-12T06:41:27.201Z,2.60
2022-11-12T06:43:53.859Z,2.50
2022-11-12T06:46:20.555Z,2.60
2022-11-12T06:48:47.154Z,2.60
2022-11-12T06:51:18.182Z,2.60
2022-11-12T06:53:45.289Z,2.70
2022-11-12T06:56:12.606Z,2.70
2022-11-12T06:58:39.718Z,2.70
2022-11-12T07:01:11.528Z,2.60
2022-11-12T07:03:39.628Z,2.50
2022-11-12T07:06:07.597Z,2.50
2022-11-12T07:08:34.728Z,2.50
2022-11-12T07:11:01.640Z,2.50
2022-11-12T07:13:29.919Z,2.50
2022-11-12T07:15:57.067Z,2.50
2022-11-12T07:18:23.908Z,2.50
2022-11-12T07:20:50.824Z,2.60
2022-11-12T07:23:17.551Z,2.60
2022-11-12T07:25:44.307Z,2.70
2022-11-12T07:28:10.900Z,2.70
2022-11-12T07:30:37.524Z,2.70
2022-11-12T07:33:04.197Z,2.50
2022-11-12T07:35:30.908Z,2.50
2022-11-12T07:37:59.801Z,2.60
2022-11-12T07:40:26.542Z,2.70
2022-11-12T07:42:53.170Z,2.80
2022-11-12T07:45:19.849Z,2.90
2022-11-12T07:47:46.445Z,2.80
2022-11-12T07:50:13.132Z,2.80
2022-11-12T07:52:39.891Z,2.80
2022-11-12T07:55:07.032Z,2.80
2022-11-12T07:57:34.078Z,2.90
2022-11-12T08:00:00.731Z,2.90
2022-11-12T08:02:27.342Z,2.90
2022-11-12T08:04:54.459Z,2.90
2022-11-12T08:07:21.164Z,3.00
2022-11-12T08:09:47.924Z,3.00
2022-11-12T08:12:14.542Z,3.00
2022-11-12T08:14:41.437Z,3.10
2022-11-12T08:17:08.144Z,3.10
2022-11-12T08:19:35.056Z,3.20
2022-11-12T08:22:01.656Z,3.20
2022-11-12T08:24:28.273Z,3.30
2022-11-12T08:26:54.976Z,3.30
2022-11-12T08:29:23.296Z,3.40
2022-11-12T08:31:49.999Z,3.50
2022-11-12T08:34:22.361Z,3.50
2022-11-12T08:36:49.433Z,3.50
2022-11-12T08:39:16.074Z,3.60
2022-11-12T08:41:42.709Z,3.70
2022-11-12T08:44:09.453Z,3.70
2022-11-12T08:46:36.199Z,3.70
2022-11-12T08:49:03.017Z,3.80
2022-11-12T08:51:29.686Z,3.80
2022-11-12T08:53:56.319Z,3.80
2022-11-12T08:56:22.961Z,3.90
2022-11-12T08:58:49.622Z,3.90
2022-11-12T09:01:16.419Z,4.00
2022-11-12T09:03:43.058Z,4.00
2022-11-12T09:06:09.774Z,4.10
2022-11-12T09:08:37.010Z,4.20
2022-11-12T09:11:03.800Z,4.30
2022-11-12T09:13:30.544Z,4.40
2022-11-12T09:16:01.610Z,4.40
2022-11-12T09:18:28.650Z,4.50
2022-11-12T09:21:00.676Z,4.50
2022-11-12T09:23:27.421Z,4.50
2022-11-12T09:25:54.626Z,4.60
2022-11-12T09:28:21.254Z,4.60
2022-11-12T09:30:49.040Z,4.70
2022-11-12T09:33:17.370Z,4.90
2022-11-12T09:35:44.441Z,5.00
2022-11-12T09:38:11.168Z,5.10
2022-11-12T09:40:53.089Z,5.10
2022-11-12T09:43:30.868Z,5.00
2022-11-12T09:46:21.924Z,5.10
2022-11-12T09:48:52.182Z,5.20
2022-11-12T09:51:25.318Z,5.30
2022-11-12T09:53:56.524Z,5.30
2022-11-12T09:56:23.913Z,5.50
2022-11-12T09:58:51.242Z,5.70
2022-11-12T10:01:22.414Z,5.60
2022-11-12T10:03:53.182Z,5.50
2022-11-12T10:06:21.684Z,5.50
2022-11-12T10:08:48.383Z,5.60
2022-11-12T10:12:03.834Z,5.70
2022-11-12T10:14:30.829Z,5.80
2022-11-12T10:17:01.563Z,5.90
2022-11-12T10:19:46.828Z,5.90
2022-11-12T10:22:22.841Z,6.00
2022-11-12T10:24:49.550Z,6.10
2022-11-12T10:27:17.353Z,6.20
2022-11-12T10:29:49.423Z,6.20
2022-11-12T10:32:16.734Z,6.30
2022-11-12T10:34:43.644Z,6.30
2022-11-12T10:37:22.513Z,6.30
2022-11-12T10:39:49.296Z,6.30
2022-11-12T10:42:22.850Z,6.30
2022-11-12T10:44:49.640Z,6.40
2022-11-12T10:47:31.957Z,6.50
2022-11-12T10:50:14.136Z,6.70
2022-11-12T10:52:52.628Z,6.90
2022-11-12T10:55:19.270Z,6.90
2022-11-12T10:57:46.233Z,6.80
2022-11-12T11:00:12.864Z,6.80
2022-11-12T11:02:51.142Z,6.80
2022-11-12T11:05:28.799Z,6.80
2022-11-12T11:07:55.545Z,6.90
2022-11-12T11:10:32.788Z,6.90
2022-11-12T11:13:22.448Z,6.80
2022-11-12T11:15:58.349Z,6.90
2022-11-12T11:18:25.365Z,7.00
2022-11-12T11:21:12.509Z,7.00
2022-11-12T11:23:48.412Z,7.10
2022-11-12T11:26:30.847Z,7.20
2022-11-12T11:29:09.742Z,7.30
2022-11-12T11:31:42.483Z,7.40
2022-11-12T11:34:28.964Z,7.40
2022-11-12T11:37:00.731Z,7.50
2022-11-12T11:39:30.573Z,7.60
2022-11-12T11:42:23.559Z,7.70
2022-11-12T11:45:08.533Z,7.70
2022-11-12T11:47:59.895Z,7.80
2022-11-12T11:50:40.539Z,7.80
2022-11-12T11:53:15.908Z,7.90
2022-11-12T11:56:00.133Z,7.90
2022-11-12T11:58:45.416Z,8.00
2022-11-12T12:01:30.854Z,8.00
2022-11-12T12:03:57.584Z,8.00
2022-11-12T12:06:31.646Z,8.10
2022-11-12T12:08:58.331Z,8.10
2022-11-12T12:11:34.117Z,8.10
2022-11-12T12:14:17.434Z,8.20
2022-11-12T12:17:07.086Z,8.30
2022-11-12T12:19:51.181Z,8.30
2022-11-12T12:22:29.599Z,8.40
2022-11-12T12:24:57.263Z,8.40
2022-11-12T12:27:30.753Z,8.50
2022-11-12T12:30:06.486Z,8.50
2022-11-12T12:32:39.036Z,8.50
2022-11-12T12:35:25.204Z,8.60
2022-11-12T12:38:10.818Z,8.60
2022-11-12T12:40:41.015Z,8.60
2022-11-12T12:43:14.543Z,8.70
2022-11-12T12:45:42.918Z,8.70
2022-11-12T12:48:19.430Z,8.80
2022-11-12T12:50:47.166Z,8.80
2022-11-12T12:53:29.114Z,8.80
2022-11-12T12:56:00.242Z,8.80
2022-11-12T12:58:31.569Z,8.90
2022-11-12T13:01:02.732Z,8.90
2022-11-12T13:03:44.823Z,8.90
2022-11-12T13:06:23.734Z,9.00
2022-11-12T13:08:59.542Z,9.00
2022-11-12T13:12:00.162Z,9.10
2022-11-12T13:14:35.753Z,9.20
2022-11-12T13:17:08.909Z,9.20
2022-11-12T13:19:35.555Z,9.30
2022-11-12T13:22:17.526Z,9.30
2022-11-12T13:25:02.185Z,9.30
2022-11-12T13:27:54.812Z,9.30
2022-11-12T13:30:24.635Z,9.30
2022-11-12T13:32:51.594Z,9.40
2022-11-12T13:35:34.891Z,9.40
2022-11-12T13:38:07.815Z,9.40
2022-11-12T13:40:34.548Z,9.40
2022-11-12T13:43:13.458Z,9.40
2022-11-12T13:45:51.588Z,9.40
2022-11-12T13:48:23.394Z,9.50
2022-11-12T13:50:55.463Z,9.50
2022-11-12T13:53:24.294Z,9.50
2022-11-12T13:55:51.833Z,9.50
2022-11-12T13:58:19.825Z,9.50
2022-11-12T14:00:53.827Z,9.40
2022-11-12T14:03:20.976Z,9.40
2022-11-12T14:05:49.012Z,9.30
2022-11-12T14:08:36.209Z,9.30
2022-11-12T14:11:05.891Z,9.30
2022-11-12T14:13:35.646Z,9.20
2022-11-12T14:16:09.324Z,9.20
2022-11-12T14:18:38.959Z,9.10
2022-11-12T14:21:06.843Z,9.10
2022-11-12T14:23:37.120Z,9.10
2022-11-12T14:26:03.964Z,9.00
2022-11-12T14:28:31.887Z,9.00
2022-11-12T14:30:59.451Z,9.00
2022-11-12T14:33:27.060Z,9.00
2022-11-12T14:35:54.750Z,8.90
2022-11-12T14:38:23.310Z,8.90
2022-11-12T14:40:50.042Z,8.80
2022-11-12T14:43:27.893Z,8.80
2022-11-12T14:45:55.906Z,8.80
2022-11-12T14:48:22.911Z,8.80
2022-11-12T14:50:51.556Z,8.80
2022-11-12T14:53:24.960Z,8.70
2022-11-12T14:55:53.327Z,8.60
2022-11-12T14:58:21.016Z,8.60
2022-11-12T15:00:49.198Z,8.50
2022-11-12T15:03:19.069Z,8.40
2022-11-12T15:05:58.344Z,8.30
2022-11-12T15:08:29.618Z,8.20
2022-11-12T15:10:56.598Z,8.20
2022-11-12T15:13:24.658Z,8.10
2022-11-12T15:16:04.698Z,8.10
2022-11-12T15:18:32.244Z,8.00
2022-11-12T15:21:17.670Z,7.90
2022-11-12T15:23:48.982Z,7.90
2022-11-12T15:26:36.415Z,7.80
2022-11-12T15:29:12.141Z,7.60
2022-11-12T15:31:52.698Z,7.60
2022-11-12T15:34:33.506Z,7.50
2022-11-12T15:37:03.117Z,7.40
2022-11-12T15:39:30.020Z,7.30
2022-11-12T15:41:57.752Z,7.30
2022-11-12T15:44:24.773Z,7.20
2022-11-12T15:46:52.046Z,7.10
2022-11-12T15:49:18.799Z,7.00
2022-11-12T15:51:46.269Z,7.00
2022-11-12T15:54:12.932Z,6.90
2022-11-12T15:56:39.728Z,6.90
2022-11-12T15:59:06.424Z,6.80
2022-11-12T16:01:33.058Z,6.70
2022-11-12T16:03:59.672Z,6.70
2022-11-12T16:06:26.308Z,6.70
2022-11-12T16:08:52.961Z,6.60
2022-11-12T16:11:38.010Z,6.50
2022-11-12T16:14:05.469Z,6.40
2022-11-12T16:16:32.986Z,6.40
2022-11-12T16:18:59.613Z,6.30
2022-11-12T16:21:26.277Z,6.20
2022-11-12T16:23:52.851Z,6.20
2022-11-12T16:26:23.118Z,6.10
2022-11-12T16:28:49.756Z,6.10
2022-11-12T16:31:16.492Z,6.00
2022-11-12T16:33:43.099Z,6.00
2022-11-12T16:36:14.256Z,5.90
2022-11-12T16:38:40.965Z,5.90
2022-11-12T16:41:11.893Z,5.90
2022-11-12T16:43:38.864Z,5.80
2022-11-12T16:46:24.834Z,5.80
2022-11-12T16:48:51.976Z,5.80
2022-11-12T16:51:19.317Z,5.70
2022-11-12T16:53:45.982Z,5.70
2022-11-12T16:56:13.884Z,5.60
2022-11-12T16:58:41.301Z,5.60
2022-11-12T17:01:12.433Z,5.50
2022-11-12T17:03:39.133Z,5.50
2022-11-12T17:06:06.455Z,5.50
2022-11-12T17:08:34.185Z,5.40
2022-11-12T17:11:05.732Z,5.30
2022-11-12T17:13:32.483Z,5.30
2022-11-12T17:15:59.117Z,5.20
2022-11-12T17:18:25.787Z,5.20
2022-11-12T17:20:52.770Z,5.20
2022-11-12T17:23:19.532Z,5.20
2022-11-12T17:25:46.165Z,5.10
2022-11-12T17:28:13.221Z,5.10
2022-11-12T17:30:39.865Z,5.10
2022-11-12T17:33:06.605Z,5.00
2022-11-12T17:35:33.827Z,5.00
2022-11-12T17:38:00.457Z,5.00
2022-11-12T17:40:27.069Z,5.00
2022-11-12T17:42:53.999Z,4.90
2022-11-12T17:45:20.602Z,4.80
2022-11-12T17:47:47.226Z,4.80
2022-11-12T17:50:13.940Z,4.80
2022-11-12T17:52:40.593Z,4.70
2022-11-12T17:55:07.474Z,4.70
2022-11-12T17:57:34.082Z,4.70
2022-11-12T18:00:00.882Z,4.60
2022-11-12T18:02:29.133Z,4.50
2022-11-12T18:04:56.428Z,4.50
2022-11-12T18:07:23.132Z,4.50
2022-11-12T18:09:49.777Z,4.40
2022-11-12T18:12:16.557Z,4.40
2022-11-12T18:14:43.226Z,4.30
2022-11-12T18:17:10.395Z,4.40
2022-11-12T18:19:37.180Z,4.40
2022-11-12T18:22:06.056Z,4.30
2022-11-12T18:24:32.758Z,4.30
2022-11-12T18:26:59.446Z,4.30
2022-11-12T18:29:26.161Z,4.20
2022-11-12T18:31:52.874Z,4.10
2022-11-12T18:34:19.447Z,4.10
2022-11-12T18:36:46.111Z,4.10
2022-11-12T18:39:12.743Z,4.10
2022-11-12T18:41:39.709Z,4.10
2022-11-12T18:44:06.359Z,4.10
2022-11-12T18:46:33.103Z,4.10
2022-11-12T18:48:59.757Z,4.00
2022-11-12T18:51:26.333Z,4.00
2022-11-12T18:53:52.953Z,4.00
2022-11-12T18:56:20.357Z,4.00
2022-11-12T18:58:47.717Z,3.90
2022-11-12T19:01:20.748Z,3.90
2022-11-12T19:03:48.640Z,3.80
2022-11-12T19:06:15.361Z,3.70
2022-11-12T19:08:42.014Z,3.70
2022-11-12T19:11:12.901Z,3.70
2022-11-12T19:13:39.799Z,3.60
2022-11-12T19:16:08.144Z,3.60
2022-11-12T19:18:34.776Z,3.60
2022-11-12T19:21:05.778Z,3.60
2022-11-12T19:23:33.427Z,3.60
2022-11-12T19:26:04.058Z,3.60
2022-11-12T19:28:30.997Z,3.60
2022-11-12T19:30:58.078Z,3.60
2022-11-12T19:33:25.023Z,3.60
2022-11-12T19:35:51.827Z,3.60
2022-11-12T19:38:18.482Z,3.60
2022-11-12T19:40:45.116Z,3.60
2022-11-12T19:43:11.758Z,3.70
2022-11-12T19:45:38.398Z,3.70
2022-11-12T19:48:05.136Z,3.80
2022-11-12T19:50:33.362Z,3.80
2022-11-12T19:53:00.319Z,3.90
2022-11-12T19:55:28.970Z,3.90
2022-11-12T19:57:55.886Z,4.00
2022-11-12T20:00:22.582Z,4.00
2022-11-12T20:02:49.395Z,4.10
2022-11-12T20:05:16.145Z,4.10
2022-11-12T20:07:42.838Z,4.20
2022-11-12T20:10:09.626Z,4.20
2022-11-12T20:12:36.626Z,4.20
2022-11-12T20:15:03.345Z,4.20
2022-11-12T20:17:31.678Z,4.20
2022-11-12T20:19:58.344Z,4.20
2022-11-12T20:22:30.695Z,4.20
2022-11-12T20:24:58.613Z,4.20
2022-11-12T20:27:25.454Z,4.20
2022-11-12T20:29:52.318Z,4.20
2022-11-12T20:32:19.227Z,4.20
2022-11-12T20:34:46.134Z,4.20
2022-11-12T20:37:12.943Z,4.20
2022-11-12T20:39:39.644Z,4.20
2022-11-12T20:42:06.246Z,4.20
2022-11-12T20:44:32.909Z,4.20
2022-11-12T20:46:59.731Z,4.20
2022-11-12T20:49:26.364Z,4.20
2022-11-12T20:51:53.055Z,4.20
2022-11-12T20:54:20.785Z,4.20
2022-11-12T20:56:50.642Z,4.20
2022-11-12T20:59:17.281Z,4.20
2022-11-12T21:01:44.152Z,4.20
2022-11-12T21:04:11.473Z,4.20
2022-11-12T21:06:38.260Z,4.20
2022-11-12T21:09:05.075Z,4.20
2022-11-12T21:11:31.749Z,4.10
2022-11-12T21:13:58.837Z,4.10
2022-11-12T21:16:25.488Z,4.10
2022-11-12T21:18:52.171Z,4.10
2022-11-12T21:21:21.219Z,4.10
2022-11-12T21:23:50.340Z,4.10
2022-11-12T21:26:18.510Z,4.10
2022-11-12T21:28:46.635Z,4.10
2022-11-12T21:31:14.529Z,4.10
2022-11-12T21:33:41.606Z,4.10
2022-11-12T21:36:13.199Z,4.10
2022-11-12T21:38:42.714Z,4.10
2022-11-12T21:41:10.610Z,4.10
2022-11-12T21:43:38.554Z,4.00
2022-11-12T21:46:14.171Z,4.00
2022-11-12T21:48:41.086Z,4.10
2022-11-12T21:51:12.212Z,4.10
2022-11-12T21:53:39.341Z,4.00
2022-11-12T21:56:08.010Z,4.10
2022-11-12T21:58:34.710Z,4.00
2022-11-12T22:01:07.369Z,4.00
2022-11-12T22:03:34.045Z,4.00
2022-11-12T22:06:01.081Z,4.00
2022-11-12T22:08:28.288Z,3.90
2022-11-12T22:11:02.541Z,4.00
2022-11-12T22:13:29.274Z,4.00
2022-11-12T22:15:56.233Z,4.00
2022-11-12T22:18:22.849Z,3.90
2022-11-12T22:20:56.396Z,3.90
2022-11-12T22:23:23.079Z,3.90
2022-11-12T22:25:50.742Z,3.90
2022-11-12T22:28:17.437Z,3.90
2022-11-12T22:30:44.069Z,3.90
2022-11-12T22:33:10.693Z,3.90
2022-11-12T22:35:37.323Z,4.00
2022-11-12T22:38:03.919Z,4.00
2022-11-12T22:40:30.567Z,4.10
2022-11-12T22:42:57.211Z,4.10
2022-11-12T22:45:23.860Z,4.10
2022-11-12T22:47:50.495Z,4.10
2022-11-12T22:50:17.106Z,4.10
2022-11-12T22:52:49.864Z,4.20
2022-11-12T22:55:16.861Z,4.20
2022-11-12T22:57:43.525Z,4.20
2022-11-12T23:00:11.150Z,4.10
2022-11-12T23:02:37.813Z,4.10
2022-11-12T23:05:04.562Z,4.10
2022-11-12T23:07:31.188Z,4.00
2022-11-12T23:09:57.828Z,4.00
2022-11-12T23:12:24.448Z,4.00
2022-11-12T23:14:51.120Z,3.90
2022-11-12T23:17:17.918Z,4.00
2022-11-12T23:19:45.401Z,4.10
2022-11-12T23:22:11.984Z,4.10
2022-11-12T23:24:38.642Z,4.00
2022-11-12T23:27:05.412Z,4.00
2022-11-12T23:29:32.049Z,3.90
2022-11-12T23:31:58.634Z,3.90
2022-11-12T23:34:25.474Z,3.90
2022-11-12T23:36:52.227Z,3.90
2022-11-12T23:39:18.971Z,4.00
2022-11-12T23:41:45.613Z,3.90
2022-11-12T23:44:12.314Z,4.00
2022-11-12T23:46:38.968Z,3.90
2022-11-12T23:49:05.606Z,3.90
2022-11-12T23:51:32.218Z,3.90
2022-11-12T23:53:58.858Z,3.90
2022-11-12T23:56:25.535Z,3.90
2022-11-12T23:58:53.446Z,3.90
